Eiwamaru — JG5742 — position and weather

sailwx.info

Track history (hours):
 
Tides and Currents Weather Stations Pressure Air Temp Water Temp Dewpoint Dewpoint Depression Visibility Wind Speed Wind Dir Waves Ship Positions

Eiwamaru

Last reported at 2014-Sep-01 06:33 UTC. Time now 2014-Sep-01 07:34 UTC.
Position N 35°30' E 139°46'.

Length 80 m; draft 4 m.

Type: Tanker. MMSI: 431101045.

Date/timePositionNaut miles runAvg speedWind from/ knotsBaromVisibWave heightAir tempDewpointWater temp
2014-Sep-01 06:33N 35°30' E 139°46'0 0.0
2014-Sep-01 05:33N 35°30' E 139°46'0 0.0
2014-Sep-01 04:33N 35°30' E 139°46'2 1.9
2014-Sep-01 03:33N 35°29' E 139°48'0 0.0
2014-Sep-01 02:33N 35°29' E 139°48'0 0.0
2014-Sep-01 01:29N 35°29' E 139°48'0 0.0
2014-Sep-01 00:26N 35°29' E 139°48'0 0.0
2014-Aug-31 23:32N 35°29' E 139°48'0 0.0
2014-Aug-31 22:29N 35°29' E 139°48'0 0.0
2014-Aug-31 21:32N 35°29' E 139°48'0 0.0
2014-Aug-31 20:32N 35°29' E 139°48'0 0.0
2014-Aug-31 19:32N 35°29' E 139°48'0 0.0
2014-Aug-31 18:31N 35°29' E 139°48'0 0.0
2014-Aug-31 17:31N 35°29' E 139°48'0 0.0
2014-Aug-31 16:31N 35°29' E 139°48'0 0.0
2014-Aug-31 15:31N 35°29' E 139°48'0 0.0
2014-Aug-31 14:22N 35°29' E 139°48'0 0.0
2014-Aug-31 13:28N 35°29' E 139°48'0 0.0
2014-Aug-31 12:31N 35°29' E 139°48'0 0.0
2014-Aug-31 11:31N 35°29' E 139°48'0 0.0
2014-Aug-31 10:31N 35°29' E 139°48'0 0.1
2014-Aug-31 09:31N 35°29' E 139°48'0 0.0
2014-Aug-31 08:22N 35°29' E 139°48'0 0.0
2014-Aug-31 07:31N 35°29' E 139°48'0 0.1
2014-Aug-31 06:31N 35°29' E 139°48'0 0.0
2014-Aug-31 05:31N 35°29' E 139°48'0 0.0
2014-Aug-31 04:25N 35°29' E 139°48'0 0.0
2014-Aug-31 03:28N 35°29' E 139°48'0 0.0
2014-Aug-31 02:31N 35°29' E 139°48'0 0.0
2014-Aug-31 01:33N 35°29' E 139°48'1010.4
2014-Aug-31 00:33N 35°19' E 139°44'1212.2
2014-Aug-30 23:33N 35°07' E 139°46'1312.8
2014-Aug-30 22:33N 34°54' E 139°46'1711.4
2014-Aug-30 21:06N 34°57' E 140°06'3813.8
2014-Aug-30 18:18N 35°23' E 140°40'1313.4
2014-Aug-30 17:18N 35°34' E 140°50'26 0.8
2014-Aug-29 09:30N 35°59' E 141°00'1512.5
2014-Aug-29 08:20N 35°44' E 140°57'2111.9
2014-Aug-29 06:33N 35°27' E 140°43'1412.4
2014-Aug-29 05:26N 35°16' E 140°32'2111.5
2014-Aug-29 03:33N 35°01' E 140°13'1212.1
2014-Aug-29 02:33N 34°54' E 140°01'1111.3
2014-Aug-29 01:33N 34°51' E 139°48'1212.4
2014-Aug-29 00:33N 34°51' E 139°33'  
2014-Aug-26 06:31N 34°58' E 139°25'1313.1
2014-Aug-26 05:33N 35°05' E 139°38'1312.5
2014-Aug-26 04:33N 35°16' E 139°46'1111.0
2014-Aug-26 03:33N 35°27' E 139°47'1312.8
2014-Aug-26 02:34N 35°31' E 140°02'1 0.7
2014-Aug-26 01:33N 35°31' E 140°03'0 0.0
2014-Aug-26 00:34N 35°31' E 140°03'0 0.0
2014-Aug-25 23:34N 35°31' E 140°03'3 3.2
2014-Aug-25 22:34N 35°32' E 139°59'0 0.0
2014-Aug-25 21:33N 35°32' E 139°59'0 0.0
2014-Aug-25 20:33N 35°32' E 139°59'0 0.0
2014-Aug-25 19:34N 35°32' E 139°59'0 0.0
2014-Aug-25 18:34N 35°32' E 139°59'0 0.0
2014-Aug-25 17:34N 35°32' E 139°59'0 0.0
2014-Aug-25 16:33N 35°32' E 139°59'0 0.0
2014-Aug-25 15:33N 35°32' E 139°59'0 0.1
2014-Aug-25 14:34N 35°32' E 139°59'0 0.0
2014-Aug-25 13:34N 35°32' E 139°59'0 0.0
2014-Aug-25 12:33N 35°32' E 139°59'0 0.0
2014-Aug-25 11:33N 35°32' E 139°59'0 0.0
2014-Aug-25 10:33N 35°32' E 139°59'5 4.9
2014-Aug-25 09:33N 35°30' E 139°54'1312.7
2014-Aug-25 08:33N 35°20' E 139°44'1212.1
2014-Aug-25 07:33N 35°08' E 139°47'1312.8
2014-Aug-25 06:33N 34°59' E 139°35'54 1.7
2014-Aug-23 23:20N 35°02' E 138°30'69 3.5
2014-Aug-23 03:33N 35°31' E 139°46'0 0.1
2014-Aug-23 02:33N 35°31' E 139°46'2 2.3
2014-Aug-23 01:33N 35°29' E 139°48'0 0.0
2014-Aug-23 00:33N 35°29' E 139°48'0 0.0
2014-Aug-22 23:33N 35°29' E 139°48'0 0.0
2014-Aug-22 22:33N 35°29' E 139°48'0 0.0
2014-Aug-22 21:33N 35°29' E 139°48'0 0.0
2014-Aug-22 20:33N 35°29' E 139°48'0 0.0
2014-Aug-22 19:33N 35°29' E 139°48'0 0.0
2014-Aug-22 18:33N 35°29' E 139°48'8 7.8
2014-Aug-22 17:33N 35°21' E 139°45'1212.5
2014-Aug-22 16:33N 35°09' E 139°46'2013.8
2014-Aug-22 15:05N 34°55' E 139°28'  
Track history (hours):
 
Tides and Currents Weather Stations Pressure Air Temp Water Temp Dewpoint Dewpoint Depression Visibility Wind Speed Wind Dir Waves Ship Positions

Eiwamaru

Last reported at 2014-Sep-01 06:33 UTC. Time now 2014-Sep-01 07:34 UTC.
Position N 35°30' E 139°46'.

Length 80 m; draft 4 m.

Type: Tanker. MMSI: 431101045.

Date/timePositionNaut miles runAvg speedWind from/ knotsBaromVisibWave heightAir tempDewpointWater temp
2014-Sep-01 06:33N 35°30' E 139°46'0 0.0
2014-Sep-01 05:33N 35°30' E 139°46'0 0.0
2014-Sep-01 04:33N 35°30' E 139°46'2 1.9
2014-Sep-01 03:33N 35°29' E 139°48'0 0.0
2014-Sep-01 02:33N 35°29' E 139°48'0 0.0
2014-Sep-01 01:29N 35°29' E 139°48'0 0.0
2014-Sep-01 00:26N 35°29' E 139°48'0 0.0
2014-Aug-31 23:32N 35°29' E 139°48'0 0.0
2014-Aug-31 22:29N 35°29' E 139°48'0 0.0
2014-Aug-31 21:32N 35°29' E 139°48'0 0.0
2014-Aug-31 20:32N 35°29' E 139°48'0 0.0
2014-Aug-31 19:32N 35°29' E 139°48'0 0.0
2014-Aug-31 18:31N 35°29' E 139°48'0 0.0
2014-Aug-31 17:31N 35°29' E 139°48'0 0.0
2014-Aug-31 16:31N 35°29' E 139°48'0 0.0
2014-Aug-31 15:31N 35°29' E 139°48'0 0.0
2014-Aug-31 14:22N 35°29' E 139°48'0 0.0
2014-Aug-31 13:28N 35°29' E 139°48'0 0.0
2014-Aug-31 12:31N 35°29' E 139°48'0 0.0
2014-Aug-31 11:31N 35°29' E 139°48'0 0.0
2014-Aug-31 10:31N 35°29' E 139°48'0 0.1
2014-Aug-31 09:31N 35°29' E 139°48'0 0.0
2014-Aug-31 08:22N 35°29' E 139°48'0 0.0
2014-Aug-31 07:31N 35°29' E 139°48'0 0.1
2014-Aug-31 06:31N 35°29' E 139°48'0 0.0
2014-Aug-31 05:31N 35°29' E 139°48'0 0.0
2014-Aug-31 04:25N 35°29' E 139°48'0 0.0
2014-Aug-31 03:28N 35°29' E 139°48'0 0.0
2014-Aug-31 02:31N 35°29' E 139°48'0 0.0
2014-Aug-31 01:33N 35°29' E 139°48'1010.4
2014-Aug-31 00:33N 35°19' E 139°44'1212.2
2014-Aug-30 23:33N 35°07' E 139°46'1312.8
2014-Aug-30 22:33N 34°54' E 139°46'1711.4
2014-Aug-30 21:06N 34°57' E 140°06'3813.8
2014-Aug-30 18:18N 35°23' E 140°40'1313.4
2014-Aug-30 17:18N 35°34' E 140°50'26 0.8
2014-Aug-29 09:30N 35°59' E 141°00'1512.5
2014-Aug-29 08:20N 35°44' E 140°57'2111.9
2014-Aug-29 06:33N 35°27' E 140°43'1412.4
2014-Aug-29 05:26N 35°16' E 140°32'2111.5
2014-Aug-29 03:33N 35°01' E 140°13'1212.1
2014-Aug-29 02:33N 34°54' E 140°01'1111.3
2014-Aug-29 01:33N 34°51' E 139°48'1212.4
2014-Aug-29 00:33N 34°51' E 139°33'  
2014-Aug-26 06:31N 34°58' E 139°25'1313.1
2014-Aug-26 05:33N 35°05' E 139°38'1312.5
2014-Aug-26 04:33N 35°16' E 139°46'1111.0
2014-Aug-26 03:33N 35°27' E 139°47'1312.8
2014-Aug-26 02:34N 35°31' E 140°02'1 0.7
2014-Aug-26 01:33N 35°31' E 140°03'0 0.0
2014-Aug-26 00:34N 35°31' E 140°03'0 0.0
2014-Aug-25 23:34N 35°31' E 140°03'3 3.2
2014-Aug-25 22:34N 35°32' E 139°59'0 0.0
2014-Aug-25 21:33N 35°32' E 139°59'0 0.0
2014-Aug-25 20:33N 35°32' E 139°59'0 0.0
2014-Aug-25 19:34N 35°32' E 139°59'0 0.0
2014-Aug-25 18:34N 35°32' E 139°59'0 0.0
2014-Aug-25 17:34N 35°32' E 139°59'0 0.0
2014-Aug-25 16:33N 35°32' E 139°59'0 0.0
2014-Aug-25 15:33N 35°32' E 139°59'0 0.1
2014-Aug-25 14:34N 35°32' E 139°59'0 0.0
2014-Aug-25 13:34N 35°32' E 139°59'0 0.0
2014-Aug-25 12:33N 35°32' E 139°59'0 0.0
2014-Aug-25 11:33N 35°32' E 139°59'0 0.0
2014-Aug-25 10:33N 35°32' E 139°59'5 4.9
2014-Aug-25 09:33N 35°30' E 139°54'1312.7
2014-Aug-25 08:33N 35°20' E 139°44'1212.1
2014-Aug-25 07:33N 35°08' E 139°47'1312.8
2014-Aug-25 06:33N 34°59' E 139°35'54 1.7
2014-Aug-23 23:20N 35°02' E 138°30'69 3.5
2014-Aug-23 03:33N 35°31' E 139°46'0 0.1
2014-Aug-23 02:33N 35°31' E 139°46'2 2.3
2014-Aug-23 01:33N 35°29' E 139°48'0 0.0
2014-Aug-23 00:33N 35°29' E 139°48'0 0.0
2014-Aug-22 23:33N 35°29' E 139°48'0 0.0
2014-Aug-22 22:33N 35°29' E 139°48'0 0.0
2014-Aug-22 21:33N 35°29' E 139°48'0 0.0
2014-Aug-22 20:33N 35°29' E 139°48'0 0.0
2014-Aug-22 19:33N 35°29' E 139°48'0 0.0
2014-Aug-22 18:33N 35°29' E 139°48'8 7.8
2014-Aug-22 17:33N 35°21' E 139°45'1212.5
2014-Aug-22 16:33N 35°09' E 139°46'2013.8
2014-Aug-22 15:05N 34°55' E 139°28'  

Dump ship's entire track history